Time;durP1;ratioP1;P1;durP2;ratioP2;P2;SDS_P1;SDS_P2;PMS_P1;PMS_P2;Temp;Humidity;BMP_temperature;BMP_pressure;BME280_temperature;BME280_humidity;BME280_pressure;Samples;Min_cycle;Max_cycle;Signal;HPM_P1;HPM_P2
2023/09/05 04:30:23;;;;;;;0.00;0.00;;;23.40;66.50;;;;;;5953630;23;20104;-83
2023/09/05 04:32:49;;;;;;;0.00;0.00;;;23.30;66.70;;;;;;4949359;28;20118;-83
2023/09/05 04:35:15;;;;;;;0.00;0.00;;;23.30;66.90;;;;;;4957328;28;20390;-83
2023/09/05 04:37:40;;;;;;;0.00;0.00;;;23.30;67.30;;;;;;4936966;29;20087;-83
2023/09/05 04:40:07;;;;;;;0.00;0.00;;;23.30;67.40;;;;;;4943729;28;20023;-83
2023/09/05 04:42:33;;;;;;;0.00;0.00;;;23.30;67.60;;;;;;4958998;28;20049;-83
2023/09/05 04:44:58;;;;;;;0.00;0.00;;;23.30;67.50;;;;;;4976529;28;20098;-83
2023/09/05 04:47:27;;;;;;;0.00;0.00;;;23.30;67.60;;;;;;4940504;28;20044;-80
2023/09/05 04:49:55;;;;;;;0.00;0.00;;;23.20;67.60;;;;;;4963479;28;20026;-79
2023/09/05 04:52:22;;;;;;;0.00;0.00;;;23.20;68.00;;;;;;4975975;28;20042;-80
2023/09/05 04:54:48;;;;;;;0.00;0.00;;;23.10;68.50;;;;;;4957040;28;20082;-80
2023/09/05 04:57:16;;;;;;;0.00;0.00;;;23.10;68.60;;;;;;4937805;29;20050;-83
2023/09/05 04:59:47;;;;;;;0.00;0.00;;;23.00;69.00;;;;;;4937740;29;20398;-82
2023/09/05 05:02:16;;;;;;;0.00;0.00;;;23.00;69.00;;;;;;4956170;28;20035;-82
2023/09/05 05:04:44;;;;;;;0.00;0.00;;;23.00;69.10;;;;;;4938733;29;20031;-84
2023/09/05 05:07:11;;;;;;;0.00;0.00;;;22.90;69.50;;;;;;4965664;28;20031;-82
2023/09/05 05:09:42;;;;;;;0.00;0.00;;;22.80;69.50;;;;;;4947443;29;20035;-84
2023/09/05 05:12:11;;;;;;;0.00;0.00;;;22.90;69.50;;;;;;4956934;29;20036;-87
2023/09/05 05:14:37;;;;;;;0.10;0.00;;;22.90;69.30;;;;;;4954259;29;20032;-90
2023/09/05 05:17:03;;;;;;;0.00;0.00;;;22.90;69.40;;;;;;4957277;29;20371;-90
2023/09/05 05:19:29;;;;;;;0.00;0.00;;;22.80;69.80;;;;;;4940328;29;20055;-90
2023/09/05 05:21:55;;;;;;;0.00;0.00;;;22.80;69.90;;;;;;4938671;29;20031;-90
2023/09/05 05:24:22;;;;;;;0.00;0.00;;;22.80;69.80;;;;;;4937551;29;20059;-84
2023/09/05 05:26:48;;;;;;;0.03;0.00;;;22.70;69.80;;;;;;4954092;29;20030;-87
2023/09/05 05:29:14;;;;;;;0.00;0.00;;;22.60;70.00;;;;;;4955095;29;20023;-87
2023/09/05 05:31:40;;;;;;;0.00;0.00;;;22.70;70.00;;;;;;4949578;29;20048;-86
2023/09/05 05:34:06;;;;;;;0.00;0.00;;;22.70;70.00;;;;;;4954796;29;20079;-87
2023/09/05 05:36:32;;;;;;;0.00;0.00;;;22.60;70.00;;;;;;4956467;29;20478;-85
2023/09/05 05:38:59;;;;;;;0.00;0.00;;;22.60;70.10;;;;;;4956666;28;20042;-85
2023/09/05 05:41:25;;;;;;;0.00;0.00;;;22.60;70.30;;;;;;4960234;28;20042;-86
2023/09/05 05:43:50;;;;;;;0.00;0.00;;;22.50;70.70;;;;;;4958132;29;20031;-87
2023/09/05 05:46:18;;;;;;;0.08;0.00;;;22.50;70.50;;;;;;4959961;29;20575;-86
2023/09/05 05:48:44;;;;;;;0.00;0.00;;;22.50;70.70;;;;;;4958535;29;20055;-86
2023/09/05 05:51:10;;;;;;;0.00;0.00;;;22.50;70.70;;;;;;4959982;29;20030;-86
2023/09/05 05:53:36;;;;;;;0.00;0.00;;;22.50;70.60;;;;;;4959804;29;20574;-85
2023/09/05 05:56:04;;;;;;;0.00;0.00;;;22.50;70.60;;;;;;4942546;29;20051;-86
2023/09/05 05:58:30;;;;;;;0.00;0.00;;;22.50;70.60;;;;;;4937392;29;20079;-86
2023/09/05 06:00:57;;;;;;;0.00;0.00;;;22.50;70.50;;;;;;4940290;29;20027;-86
2023/09/05 06:03:23;;;;;;;0.00;0.00;;;22.50;70.80;;;;;;4953725;29;20038;-86
2023/09/05 06:05:50;;;;;;;0.00;0.00;;;22.50;70.70;;;;;;4959016;29;20047;-86
2023/09/05 06:08:16;;;;;;;0.00;0.00;;;22.50;70.80;;;;;;4923563;29;20032;-85
2023/09/05 06:10:43;;;;;;;0.00;0.00;;;22.50;70.90;;;;;;4941046;29;20038;-86
2023/09/05 06:13:09;;;;;;;0.20;0.03;;;22.40;71.00;;;;;;4940410;29;20032;-86
2023/09/05 06:15:35;;;;;;;0.00;0.00;;;22.30;71.30;;;;;;4923581;29;20031;-86
2023/09/05 06:18:02;;;;;;;0.00;0.00;;;22.40;71.60;;;;;;4940398;29;20040;-86
2023/09/05 06:20:28;;;;;;;0.10;0.08;;;22.40;71.40;;;;;;4940675;29;20020;-86
2023/09/05 06:22:54;;;;;;;0.00;0.00;;;22.50;71.10;;;;;;4940412;29;20024;-86
2023/09/05 06:25:21;;;;;;;0.00;0.00;;;22.60;71.10;;;;;;4951630;29;20094;-86
2023/09/05 06:27:47;;;;;;;0.00;0.00;;;22.60;71.20;;;;;;4958706;29;20034;-86
2023/09/05 06:30:14;;;;;;;0.00;0.00;;;22.70;71.10;;;;;;4940284;29;20039;-86
2023/09/05 06:32:40;;;;;;;0.10;0.10;;;22.80;70.90;;;;;;4947467;29;20035;-86
2023/09/05 06:35:06;;;;;;;0.00;0.00;;;22.90;70.80;;;;;;4955445;29;20039;-86
2023/09/05 06:37:35;;;;;;;0.00;0.00;;;22.90;70.50;;;;;;4956036;29;20035;-86
2023/09/05 06:40:05;;;;;;;0.22;0.10;;;23.00;70.50;;;;;;4943070;28;20117;-86
2023/09/05 06:42:31;;;;;;;0.00;0.00;;;23.00;70.50;;;;;;4941420;29;20027;-86
2023/09/05 06:44:56;;;;;;;0.00;0.00;;;23.10;70.60;;;;;;4940265;29;20031;-86
2023/09/05 06:47:22;;;;;;;0.00;0.00;;;23.10;70.30;;;;;;4939536;29;20042;-86
2023/09/05 06:49:48;;;;;;;0.00;0.00;;;23.10;70.50;;;;;;4938662;29;20067;-86
2023/09/05 06:52:14;;;;;;;0.00;0.00;;;23.20;70.50;;;;;;4939184;29;20036;-86
2023/09/05 06:54:39;;;;;;;0.00;0.00;;;23.20;70.70;;;;;;4922701;29;20038;-86
2023/09/05 06:57:08;;;;;;;0.00;0.00;;;23.30;70.90;;;;;;4939799;29;20063;-86
2023/09/05 06:59:35;;;;;;;0.00;0.00;;;23.30;71.30;;;;;;4952660;29;20103;-86
2023/09/05 07:02:02;;;;;;;0.00;0.00;;;23.30;71.20;;;;;;4937212;29;20506;-86
2023/09/05 07:04:31;;;;;;;0.05;0.05;;;23.40;71.00;;;;;;4941746;29;20485;-86
2023/09/05 07:06:58;;;;;;;0.08;0.08;;;23.50;70.90;;;;;;4958588;29;20059;-86
2023/09/05 07:09:24;;;;;;;0.00;0.00;;;23.60;70.60;;;;;;4935320;29;20023;-86
2023/09/05 07:11:50;;;;;;;0.00;0.00;;;23.80;69.50;;;;;;4939651;29;20059;-86
2023/09/05 07:14:16;;;;;;;0.10;0.00;;;23.90;69.20;;;;;;4939676;29;20071;-86
2023/09/05 07:16:41;;;;;;;0.00;0.00;;;23.90;69.50;;;;;;4939435;29;20106;-86
2023/09/05 07:19:07;;;;;;;0.05;0.05;;;24.00;68.10;;;;;;4939259;29;20107;-86
2023/09/05 07:21:33;;;;;;;0.00;0.00;;;24.10;67.00;;;;;;4939629;29;20040;-85
2023/09/05 07:23:58;;;;;;;0.10;0.10;;;24.30;67.00;;;;;;4939307;29;20035;-86
2023/09/05 07:26:24;;;;;;;0.10;0.10;;;24.50;66.80;;;;;;4951523;29;20090;-85
2023/09/05 07:28:50;;;;;;;0.00;0.00;;;24.60;66.40;;;;;;4939305;29;20032;-86
2023/09/05 07:31:17;;;;;;;0.00;0.00;;;24.80;65.20;;;;;;4921959;29;20166;-85
2023/09/05 07:33:43;;;;;;;0.10;0.10;;;24.90;64.90;;;;;;4954746;29;20063;-85
2023/09/05 07:36:09;;;;;;;0.10;0.10;;;25.20;64.70;;;;;;4941336;29;20375;-86
2023/09/05 07:38:35;;;;;;;0.13;0.13;;;26.10;61.90;;;;;;4958114;29;20874;-86
2023/09/05 07:41:05;;;;;;;0.20;0.20;;;26.70;59.60;;;;;;4952941;28;20032;-86
2023/09/05 07:43:33;;;;;;;0.10;0.10;;;26.80;59.10;;;;;;4921950;29;20032;-86
2023/09/05 07:45:59;;;;;;;0.10;0.10;;;26.80;58.90;;;;;;4921476;29;20036;-86
2023/09/05 07:48:24;;;;;;;0.10;0.10;;;26.80;59.60;;;;;;4934433;29;20565;-86
2023/09/05 07:50:50;;;;;;;0.00;0.00;;;26.70;60.00;;;;;;4946347;29;20056;-86
2023/09/05 07:53:16;;;;;;;0.10;0.10;;;26.60;60.00;;;;;;4938687;29;20489;-86
2023/09/05 07:55:42;;;;;;;0.00;0.00;;;26.40;60.40;;;;;;4938592;29;20066;-86
2023/09/05 07:58:08;;;;;;;0.17;0.00;;;26.30;60.70;;;;;;4930786;29;20024;-86
2023/09/05 08:00:34;;;;;;;0.00;0.00;;;26.30;60.80;;;;;;4938673;29;20032;-86
2023/09/05 08:03:03;;;;;;;0.03;0.03;;;26.20;60.90;;;;;;4946537;29;20039;-86
2023/09/05 08:05:29;;;;;;;0.00;0.00;;;26.30;61.40;;;;;;4940345;29;20035;-86
2023/09/05 08:07:55;;;;;;;0.10;0.10;;;26.20;61.40;;;;;;4942142;29;20038;-86
2023/09/05 08:10:20;;;;;;;0.10;0.10;;;26.40;61.40;;;;;;4938498;29;20027;-86
2023/09/05 08:12:46;;;;;;;0.05;0.05;;;26.50;60.90;;;;;;4937258;29;20491;-86
2023/09/05 08:15:12;;;;;;;0.10;0.10;;;26.80;60.40;;;;;;4938591;29;20088;-86
2023/09/05 08:17:38;;;;;;;0.10;0.10;;;27.10;60.40;;;;;;4921577;29;20035;-86
2023/09/05 08:20:04;;;;;;;0.00;0.00;;;27.40;59.40;;;;;;4949383;29;20027;-85
2023/09/05 08:22:31;;;;;;;0.03;0.03;;;27.80;58.30;;;;;;4957723;29;20038;-86
2023/09/05 08:24:56;;;;;;;0.08;0.08;;;28.10;56.70;;;;;;4940151;29;20372;-86
2023/09/05 08:27:28;;;;;;;0.00;0.00;;;28.20;57.10;;;;;;4956246;29;20070;-86
2023/09/05 08:29:55;;;;;;;0.10;0.10;;;28.10;57.20;;;;;;4939901;29;20031;-86
2023/09/05 08:32:21;;;;;;;0.10;0.10;;;27.80;58.10;;;;;;4939875;29;20058;-86
2023/09/05 08:34:46;;;;;;;0.10;0.10;;;27.40;59.00;;;;;;4956892;29;20023;-85
2023/09/05 08:37:12;;;;;;;0.10;0.10;;;27.20;59.40;;;;;;4942238;29;20057;-85
2023/09/05 08:39:38;;;;;;;0.05;0.05;;;27.20;60.70;;;;;;4940642;28;20155;-85
2023/09/05 08:42:06;;;;;;;0.10;0.10;;;27.10;61.00;;;;;;4949513;28;20032;-85
2023/09/05 08:44:43;;;;;;;0.00;0.00;;;27.00;61.10;;;;;;4921202;29;20023;-85
2023/09/05 08:47:08;;;;;;;0.00;0.00;;;27.10;61.30;;;;;;4938084;29;20028;-86
2023/09/05 08:49:35;;;;;;;0.00;0.00;;;27.00;60.90;;;;;;4921277;29;20031;-86
2023/09/05 08:52:03;;;;;;;0.10;0.10;;;27.00;61.00;;;;;;4937884;29;20549;-86
2023/09/05 08:54:30;;;;;;;0.00;0.00;;;27.00;61.10;;;;;;4920847;29;20030;-85
2023/09/05 08:56:58;;;;;;;0.10;0.10;;;27.10;60.20;;;;;;4938077;29;20060;-86
2023/09/05 08:59:25;;;;;;;0.00;0.00;;;27.20;61.20;;;;;;4920889;29;20407;-86
2023/09/05 09:01:51;;;;;;;0.10;0.10;;;27.20;61.30;;;;;;4937420;29;20043;-86
2023/09/05 09:04:19;;;;;;;0.00;0.00;;;27.30;61.90;;;;;;4957142;29;20027;-85
2023/09/05 09:06:54;;;;;;;0.10;0.00;;;27.30;61.50;;;;;;4932094;29;20491;-85
2023/09/05 09:09:36;;;;;;;0.10;0.00;;;27.50;61.20;;;;;;4920800;29;20028;-86
2023/09/05 09:12:02;;;;;;;0.10;0.10;;;27.70;60.30;;;;;;4936646;29;20040;-85
2023/09/05 09:14:27;;;;;;;0.00;0.00;;;27.90;59.80;;;;;;4922133;29;20038;-86
2023/09/05 09:16:53;;;;;;;0.10;0.10;;;28.20;59.50;;;;;;4941416;29;20070;-86
2023/09/05 09:19:19;;;;;;;0.00;0.00;;;28.40;59.40;;;;;;4941546;29;20035;-85
2023/09/05 09:21:47;;;;;;;0.03;0.03;;;28.70;58.60;;;;;;4955727;29;20438;-86
2023/09/05 09:24:16;;;;;;;0.00;0.00;;;28.70;57.90;;;;;;4960842;29;20034;-85
2023/09/05 09:26:42;;;;;;;0.10;0.10;;;28.70;56.30;;;;;;4943644;29;20582;-86
2023/09/05 09:29:09;;;;;;;0.00;0.00;;;28.60;57.50;;;;;;4942055;29;20071;-86
2023/09/05 09:31:36;;;;;;;0.10;0.10;;;28.50;58.10;;;;;;4927658;29;20047;-85
2023/09/05 09:34:02;;;;;;;0.00;0.00;;;28.40;58.10;;;;;;4944232;29;20034;-86
2023/09/05 09:36:35;;;;;;;0.00;0.00;;;28.30;58.50;;;;;;4954064;29;20020;-86
2023/09/05 09:39:11;;;;;;;0.20;0.10;;;28.30;59.90;;;;;;4939897;29;20030;-86
2023/09/05 09:41:45;;;;;;;0.05;0.05;;;28.30;60.80;;;;;;4973888;28;20122;-87
2023/09/05 09:44:27;;;;;;;0.13;0.10;;;28.40;60.30;;;;;;4924121;29;20502;-86
2023/09/05 09:46:54;;;;;;;0.00;0.00;;;28.40;59.70;;;;;;4938162;29;20027;-86
2023/09/05 09:49:22;;;;;;;0.00;0.00;;;28.50;59.50;;;;;;4960307;29;20506;-86
2023/09/05 09:51:54;;;;;;;0.00;0.00;;;28.40;59.70;;;;;;4942297;29;20023;-87
2023/09/05 09:54:29;;;;;;;0.00;0.00;;;28.50;59.90;;;;;;4958904;29;20027;-86
2023/09/05 09:56:59;;;;;;;0.00;0.00;;;28.50;60.10;;;;;;4959048;29;20486;-86
2023/09/05 09:59:27;;;;;;;0.00;0.00;;;28.60;59.50;;;;;;4954737;28;20031;-86
2023/09/05 10:01:54;;;;;;;0.08;0.08;;;28.50;58.90;;;;;;4941779;29;20032;-86
2023/09/05 10:04:22;;;;;;;0.03;0.00;;;28.50;59.80;;;;;;4950562;29;20024;-86
2023/09/05 10:06:49;;;;;;;0.00;0.00;;;28.60;59.80;;;;;;4923538;29;20023;-86
2023/09/05 10:09:16;;;;;;;0.00;0.00;;;28.70;60.10;;;;;;4923334;29;20024;-86
2023/09/05 10:11:43;;;;;;;0.10;0.00;;;28.80;59.50;;;;;;4923349;29;20368;-86
2023/09/05 10:14:11;;;;;;;0.00;0.00;;;28.80;59.10;;;;;;4940620;29;20119;-86
2023/09/05 10:16:39;;;;;;;0.00;0.00;;;28.90;58.40;;;;;;4942651;28;20021;-85
2023/09/05 10:19:05;;;;;;;0.08;0.08;;;29.00;58.20;;;;;;4952647;29;20097;-86
2023/09/05 10:21:33;;;;;;;0.13;0.10;;;29.10;58.50;;;;;;4959708;29;20036;-85
2023/09/05 10:24:00;;;;;;;0.00;0.00;;;29.10;57.80;;;;;;4959602;29;20058;-86
2023/09/05 10:26:27;;;;;;;0.08;0.00;;;29.10;58.70;;;;;;4953420;28;20028;-86
2023/09/05 10:28:56;;;;;;;0.00;0.00;;;29.20;59.10;;;;;;4940374;29;20495;-86
2023/09/05 10:31:24;;;;;;;0.00;0.00;;;29.30;58.00;;;;;;4947527;29;20049;-86
2023/09/05 10:33:50;;;;;;;0.00;0.00;;;29.30;59.20;;;;;;4941563;29;20062;-86
2023/09/05 10:36:54;;;;;;;0.00;0.00;;;29.40;58.40;;;;;;4958149;29;20697;-86
2023/09/05 10:39:27;;;;;;;0.00;0.00;;;29.50;58.20;;;;;;4900223;29;20073;-86
2023/09/05 10:41:53;;;;;;;0.00;0.00;;;29.50;58.40;;;;;;4902582;29;20123;-86
2023/09/05 10:44:21;;;;;;;0.00;0.00;;;29.60;57.80;;;;;;4910856;29;20043;-86
2023/09/05 10:46:53;;;;;;;0.00;0.00;;;29.60;57.70;;;;;;4939639;29;20035;-86
2023/09/05 10:49:19;;;;;;;;;;;29.70;58.20;;;;;;4924636;29;20125;-87
2023/09/05 10:52:19;;;;;;;0.10;0.10;;;29.70;56.80;;;;;;4959229;29;19910;-86
2023/09/05 10:54:45;;;;;;;0.00;0.00;;;29.80;58.50;;;;;;4950318;29;20644;-86
2023/09/05 10:57:36;;;;;;;0.10;0.10;;;29.80;57.90;;;;;;4938575;29;20074;-86
2023/09/05 11:00:29;;;;;;;0.00;0.00;;;30.00;56.80;;;;;;4938801;29;20032;-87
2023/09/05 11:03:15;;;;;;;0.08;0.08;;;30.00;56.60;;;;;;4944809;29;20042;-87
2023/09/05 11:05:45;;;;;;;0.00;0.00;;;30.10;55.20;;;;;;4938148;29;20036;-86
2023/09/05 11:08:22;;;;;;;0.00;0.00;;;30.10;54.40;;;;;;4926745;29;20032;-86
2023/09/05 11:10:51;;;;;;;0.00;0.00;;;30.20;55.00;;;;;;4938507;29;20111;-87
2023/09/05 11:13:17;;;;;;;0.20;0.10;;;30.20;55.20;;;;;;4939540;29;20019;-86
2023/09/05 11:15:43;;;;;;;0.08;0.08;;;30.30;54.70;;;;;;4939261;29;20063;-86
2023/09/05 11:18:12;;;;;;;0.00;0.00;;;30.30;53.80;;;;;;4922452;29;20020;-86
2023/09/05 11:20:39;;;;;;;0.00;0.00;;;30.40;53.50;;;;;;4939343;29;20042;-86
2023/09/05 11:23:14;;;;;;;0.00;0.00;;;30.50;53.90;;;;;;4939398;29;20059;-87
2023/09/05 11:25:53;;;;;;;0.00;0.00;;;30.50;53.80;;;;;;4952424;29;20058;-87
2023/09/05 11:28:20;;;;;;;0.10;0.10;;;30.60;53.20;;;;;;4936960;29;20028;-86
2023/09/05 11:30:46;;;;;;;0.00;0.00;;;30.60;53.10;;;;;;4939102;29;20077;-86
2023/09/05 11:33:14;;;;;;;0.00;0.00;;;30.70;52.60;;;;;;4950638;29;20048;-86
2023/09/05 11:35:47;;;;;;;0.03;0.03;;;30.80;51.90;;;;;;4953837;29;20039;-85
2023/09/05 11:38:13;;;;;;;0.03;0.03;;;30.80;52.30;;;;;;4938847;29;20016;-85
2023/09/05 11:40:41;;;;;;;0.10;0.10;;;30.80;50.30;;;;;;4957414;28;20125;-86
2023/09/05 11:43:08;;;;;;;0.08;0.05;;;30.90;51.70;;;;;;4957456;28;20030;-86
2023/09/05 11:45:35;;;;;;;0.10;0.10;;;30.90;49.50;;;;;;4922049;29;20042;-86
2023/09/05 11:48:04;;;;;;;0.00;0.00;;;31.00;51.60;;;;;;4938679;29;20028;-85
2023/09/05 11:50:31;;;;;;;0.03;0.03;;;31.00;50.60;;;;;;4938780;29;20040;-86
2023/09/05 11:52:58;;;;;;;0.10;0.10;;;31.10;51.20;;;;;;4921569;29;20058;-86
2023/09/05 11:55:25;;;;;;;0.10;0.10;;;31.10;49.60;;;;;;4938789;29;20030;-86
2023/09/05 11:57:54;;;;;;;0.10;0.10;;;31.20;47.80;;;;;;4949050;29;20023;-85
2023/09/05 12:00:24;;;;;;;0.10;0.10;;;31.10;45.90;;;;;;4957519;29;20078;-86
2023/09/05 12:02:51;;;;;;;0.03;0.03;;;31.20;46.60;;;;;;4940062;29;20031;-85
2023/09/05 12:05:19;;;;;;;0.10;0.10;;;31.30;47.50;;;;;;4940829;29;20031;-85
2023/09/05 12:07:55;;;;;;;0.10;0.10;;;31.30;47.40;;;;;;4936529;29;20083;-86
2023/09/05 12:10:26;;;;;;;0.20;0.10;;;31.40;47.80;;;;;;4938642;29;20082;-86
2023/09/05 12:13:03;;;;;;;0.10;0.10;;;31.30;47.50;;;;;;4950624;29;20027;-86
2023/09/05 12:15:38;;;;;;;0.10;0.05;;;31.40;47.30;;;;;;4940523;29;20031;-87
2023/09/05 12:18:06;;;;;;;0.20;0.05;;;31.40;46.30;;;;;;4957507;29;20043;-86
2023/09/05 12:20:35;;;;;;;0.00;0.00;;;31.40;47.20;;;;;;4938106;29;20056;-85
2023/09/05 12:23:02;;;;;;;0.20;0.10;;;31.60;49.00;;;;;;4938189;29;20070;-85
2023/09/05 12:25:28;;;;;;;0.15;0.10;;;31.60;46.80;;;;;;4950159;29;20039;-86
2023/09/05 12:27:55;;;;;;;0.10;0.10;;;31.70;46.70;;;;;;4937193;29;20038;-87
2023/09/05 12:30:25;;;;;;;0.10;0.10;;;31.70;46.90;;;;;;4938290;29;20032;-86
2023/09/05 12:33:03;;;;;;;0.03;0.03;;;31.80;46.00;;;;;;4938526;29;20439;-85
2023/09/05 12:35:31;;;;;;;0.10;0.10;;;31.70;46.80;;;;;;4921434;29;20032;-86
2023/09/05 12:38:00;;;;;;;0.35;0.10;;;31.80;46.40;;;;;;4938301;29;20024;-87
2023/09/05 12:40:26;;;;;;;0.10;0.10;;;31.80;46.40;;;;;;4953144;28;20550;-86
2023/09/05 12:42:53;;;;;;;0.10;0.10;;;31.80;45.20;;;;;;4949269;28;20044;-86
2023/09/05 12:45:19;;;;;;;0.15;0.15;;;31.80;44.80;;;;;;4938363;29;20036;-86
2023/09/05 12:47:51;;;;;;;0.43;0.20;;;31.80;45.60;;;;;;4936287;29;20549;-86
2023/09/05 12:50:17;;;;;;;0.10;0.10;;;31.90;45.10;;;;;;4960352;28;20027;-86
2023/09/05 12:52:44;;;;;;;0.10;0.10;;;31.90;44.70;;;;;;4955770;29;20042;-88
2023/09/05 12:55:14;;;;;;;0.20;0.20;;;32.00;44.60;;;;;;4942142;29;20502;-86
2023/09/05 12:57:41;;;;;;;0.30;0.17;;;32.00;43.40;;;;;;4941793;29;20395;-86
2023/09/05 13:00:10;;;;;;;0.10;0.10;;;32.10;44.60;;;;;;4941943;29;20857;-85
2023/09/05 13:02:37;;;;;;;0.10;0.10;;;32.00;44.30;;;;;;4931331;29;20118;-86
2023/09/05 13:05:03;;;;;;;0.15;0.15;;;32.10;45.10;;;;;;4958330;29;21141;-85
2023/09/05 13:07:29;;;;;;;0.10;0.10;;;32.10;44.60;;;;;;4941856;29;20028;-86
2023/09/05 13:09:55;;;;;;;0.20;0.10;;;32.10;44.50;;;;;;4924370;29;20040;-85
2023/09/05 13:12:22;;;;;;;0.17;0.17;;;32.10;43.80;;;;;;4924667;29;20031;-86
2023/09/05 13:14:47;;;;;;;0.20;0.20;;;32.20;44.70;;;;;;4941568;29;20115;-86
2023/09/05 13:17:16;;;;;;;0.20;0.13;;;32.20;44.30;;;;;;4941720;29;20059;-86
2023/09/05 13:19:43;;;;;;;0.10;0.10;;;32.20;43.20;;;;;;4944175;29;20030;-85
2023/09/05 13:22:10;;;;;;;0.15;0.15;;;32.20;44.50;;;;;;4948483;29;20060;-85
2023/09/05 13:24:36;;;;;;;0.22;0.20;;;32.30;45.70;;;;;;4946559;29;20110;-85
2023/09/05 13:27:02;;;;;;;0.10;0.10;;;32.30;44.80;;;;;;4960697;29;20031;-85
2023/09/05 13:29:28;;;;;;;0.20;0.20;;;32.30;44.60;;;;;;4931695;29;20095;-86
2023/09/05 13:31:55;;;;;;;0.15;0.10;;;32.40;44.80;;;;;;4942567;29;20044;-85
2023/09/05 13:34:20;;;;;;;0.20;0.20;;;32.40;44.50;;;;;;4938665;29;20036;-85
2023/09/05 13:36:46;;;;;;;0.10;0.10;;;32.40;45.60;;;;;;4924478;29;20038;-86
2023/09/05 13:39:11;;;;;;;0.20;0.20;;;32.40;44.50;;;;;;4939898;29;20486;-87
2023/09/05 13:41:37;;;;;;;0.10;0.10;;;32.40;43.40;;;;;;4957942;28;20029;-85
2023/09/05 13:44:03;;;;;;;0.30;0.20;;;32.50;41.80;;;;;;4946325;28;20491;-86
2023/09/05 13:46:31;;;;;;;0.20;0.20;;;32.50;42.20;;;;;;4941081;29;20030;-85
2023/09/05 13:48:57;;;;;;;0.28;0.20;;;32.60;42.80;;;;;;4923729;29;20042;-85
2023/09/05 13:51:22;;;;;;;0.20;0.20;;;32.60;41.70;;;;;;4941214;29;20031;-85
2023/09/05 13:53:49;;;;;;;0.28;0.20;;;32.60;41.30;;;;;;4941044;29;20028;-86
2023/09/05 13:56:15;;;;;;;0.10;0.10;;;32.60;42.70;;;;;;4941031;29;20021;-86
2023/09/05 13:58:41;;;;;;;0.10;0.10;;;32.70;43.00;;;;;;4940945;29;20059;-86
2023/09/05 14:01:07;;;;;;;0.17;0.10;;;32.70;42.70;;;;;;4940764;29;20027;-86
2023/09/05 14:03:33;;;;;;;0.20;0.10;;;32.70;42.00;;;;;;4959892;29;20549;-87
2023/09/05 14:05:58;;;;;;;0.52;0.20;;;32.70;43.00;;;;;;4943340;29;20522;-86
2023/09/05 14:08:25;;;;;;;0.10;0.10;;;32.70;42.20;;;;;;4923497;29;20455;-85
2023/09/05 14:10:51;;;;;;;0.20;0.20;;;32.70;43.90;;;;;;4947011;29;20031;-85
2023/09/05 14:13:17;;;;;;;0.30;0.20;;;32.70;42.60;;;;;;4942609;29;20806;-85
2023/09/05 14:15:43;;;;;;;0.20;0.20;;;32.70;42.00;;;;;;4930163;29;20031;-85
2023/09/05 14:18:11;;;;;;;0.20;0.20;;;32.80;43.10;;;;;;4942337;29;20106;-86
2023/09/05 14:20:37;;;;;;;0.20;0.20;;;32.80;42.20;;;;;;4942558;29;20031;-85
2023/09/05 14:23:03;;;;;;;0.20;0.20;;;32.80;43.30;;;;;;4959695;29;20038;-86
2023/09/05 14:25:29;;;;;;;0.20;0.20;;;32.80;42.50;;;;;;4958985;29;20394;-86
2023/09/05 14:27:56;;;;;;;0.10;0.10;;;32.80;42.00;;;;;;4958253;29;20055;-85
2023/09/05 14:30:21;;;;;;;0.13;0.10;;;32.80;42.90;;;;;;4942286;29;20505;-86
2023/09/05 14:32:47;;;;;;;0.17;0.10;;;32.80;43.70;;;;;;4959574;29;20031;-87
2023/09/05 14:35:13;;;;;;;0.10;0.10;;;32.70;42.90;;;;;;4959511;29;20038;-86
2023/09/05 14:37:39;;;;;;;0.10;0.10;;;32.70;43.60;;;;;;4944876;29;20458;-86
2023/09/05 14:40:06;;;;;;;0.10;0.10;;;32.70;43.30;;;;;;4940490;28;20439;-86
2023/09/05 14:42:32;;;;;;;0.08;0.08;;;32.80;43.20;;;;;;4940256;29;20047;-86
2023/09/05 14:44:58;;;;;;;0.10;0.10;;;32.70;42.30;;;;;;4940165;29;20027;-86
2023/09/05 14:47:25;;;;;;;0.10;0.10;;;32.70;43.50;;;;;;4955225;29;20126;-85
2023/09/05 14:49:51;;;;;;;0.20;0.20;;;32.80;42.40;;;;;;4941745;29;20398;-87
2023/09/05 14:52:20;;;;;;;0.25;0.25;;;32.70;41.60;;;;;;4959178;29;20046;-85
2023/09/05 14:54:49;;;;;;;0.20;0.10;;;32.70;41.20;;;;;;4937545;29;20031;-86
2023/09/05 14:57:18;;;;;;;0.10;0.10;;;32.80;42.20;;;;;;4939906;29;20039;-86
2023/09/05 14:59:43;;;;;;;0.20;0.20;;;32.80;42.20;;;;;;4933410;29;20595;-85
2023/09/05 15:02:09;;;;;;;0.10;0.10;;;32.80;42.50;;;;;;4943243;29;20035;-86
2023/09/05 15:04:35;;;;;;;0.10;0.10;;;32.80;43.60;;;;;;4955281;29;20494;-85
2023/09/05 15:07:03;;;;;;;0.10;0.10;;;32.60;43.60;;;;;;4939927;29;20031;-86
2023/09/05 15:09:29;;;;;;;0.10;0.10;;;32.60;44.30;;;;;;4938458;29;20028;-85
2023/09/05 15:11:54;;;;;;;0.20;0.20;;;32.70;44.70;;;;;;4939130;29;20518;-85
2023/09/05 15:14:20;;;;;;;0.10;0.10;;;32.70;43.80;;;;;;4939233;29;20078;-87
2023/09/05 15:16:46;;;;;;;0.10;0.10;;;32.60;44.40;;;;;;4948918;29;20105;-86
2023/09/05 15:19:11;;;;;;;0.10;0.10;;;32.60;43.80;;;;;;4951603;28;20062;-87
2023/09/05 15:21:40;;;;;;;0.22;0.10;;;32.40;43.90;;;;;;4939694;29;20031;-86
2023/09/05 15:24:06;;;;;;;0.20;0.20;;;32.40;43.60;;;;;;4939446;29;20102;-86
2023/09/05 15:26:35;;;;;;;0.10;0.10;;;32.40;44.00;;;;;;4931546;29;20036;-86
2023/09/05 15:29:01;;;;;;;0.17;0.17;;;32.50;44.20;;;;;;4922146;29;20028;-85
2023/09/05 15:31:27;;;;;;;0.20;0.20;;;32.40;44.10;;;;;;4918773;29;20188;-85
2023/09/05 15:33:53;;;;;;;0.13;0.10;;;32.40;44.00;;;;;;4936720;29;20040;-87
2023/09/05 15:36:18;;;;;;;0.30;0.10;;;32.50;45.00;;;;;;4943159;29;20035;-86
2023/09/05 15:38:44;;;;;;;0.20;0.20;;;32.40;44.80;;;;;;4920181;29;20373;-87
2023/09/05 15:41:09;;;;;;;0.17;0.17;;;32.40;44.80;;;;;;4945180;29;20057;-86
2023/09/05 15:43:35;;;;;;;0.10;0.10;;;32.30;44.80;;;;;;4952991;29;20075;-80
2023/09/05 15:46:10;;;;;;;0.15;0.15;;;32.30;44.70;;;;;;4924264;29;20515;-81
2023/09/05 15:48:36;;;;;;;0.10;0.10;;;32.30;45.10;;;;;;4920083;29;20035;-88
2023/09/05 15:51:02;;;;;;;0.20;0.20;;;32.30;44.60;;;;;;4932130;29;20036;-87
2023/09/05 15:53:27;;;;;;;0.30;0.17;;;32.20;45.00;;;;;;4938717;29;20031;-88
2023/09/05 15:55:54;;;;;;;0.10;0.10;;;32.20;44.20;;;;;;4924267;29;20096;-87
2023/09/05 15:58:20;;;;;;;0.45;0.20;;;32.20;44.90;;;;;;4919949;29;20164;-87
2023/09/05 16:00:48;;;;;;;0.20;0.10;;;32.10;44.50;;;;;;4918688;29;20068;-86
2023/09/05 16:03:13;;;;;;;0.25;0.15;;;32.10;44.00;;;;;;4935883;29;20036;-86
2023/09/05 16:05:39;;;;;;;0.10;0.10;;;32.10;43.90;;;;;;4922811;29;20123;-82
2023/09/05 16:08:05;;;;;;;0.20;0.20;;;31.90;43.10;;;;;;4918699;29;20040;-86
2023/09/05 16:10:30;;;;;;;0.10;0.10;;;32.00;43.20;;;;;;4934773;29;20027;-88
2023/09/05 16:12:56;;;;;;;0.10;0.10;;;31.90;42.70;;;;;;4930938;29;20043;-88
2023/09/05 16:15:27;;;;;;;0.10;0.10;;;31.90;42.60;;;;;;4931202;29;20023;-85
2023/09/05 16:17:56;;;;;;;0.10;0.10;;;31.90;41.70;;;;;;4929363;29;20027;-81
2023/09/05 16:20:46;;;;;;;0.00;0.00;;;31.80;41.60;;;;;;4936620;29;20047;-87
2023/09/05 16:26:43;;;;;;;0.10;0.10;;;31.80;41.80;;;;;;4934991;29;20115;-87
2023/09/05 16:29:27;;;;;;;0.10;0.05;;;31.70;41.70;;;;;;4936621;29;20286;-86
2023/09/05 16:32:01;;;;;;;0.10;0.10;;;31.60;41.80;;;;;;4939761;29;20066;-83
2023/09/05 16:34:31;;;;;;;0.10;0.10;;;31.50;41.70;;;;;;4936791;29;20049;-87
2023/09/05 16:36:58;;;;;;;0.20;0.10;;;31.50;41.50;;;;;;4939813;29;20031;-86
2023/09/05 16:39:24;;;;;;;0.10;0.10;;;31.50;42.20;;;;;;4940038;29;20082;-83
2023/09/05 16:42:01;;;;;;;0.10;0.10;;;31.50;41.70;;;;;;4955789;28;20027;-84
2023/09/05 16:44:53;;;;;;;0.00;0.00;;;31.40;41.20;;;;;;4937966;29;20035;-85
2023/09/05 16:47:19;;;;;;;0.05;0.05;;;31.30;42.10;;;;;;4953728;29;20042;-83
2023/09/05 16:49:59;;;;;;;0.00;0.00;;;31.30;41.30;;;;;;4953968;29;20039;-86
2023/09/05 16:55:47;;;;;;;0.00;0.00;;;31.20;42.30;;;;;;4941056;29;20613;-83
2023/09/05 16:58:13;;;;;;;0.00;0.00;;;31.10;42.90;;;;;;4956439;29;20059;-84
2023/09/05 17:00:48;;;;;;;0.10;0.10;;;31.00;42.40;;;;;;4956432;29;20030;-82
2023/09/05 17:03:14;;;;;;;0.10;0.10;;;31.00;43.00;;;;;;4937096;29;20444;-83
2023/09/05 17:05:42;;;;;;;0.10;0.10;;;30.90;43.10;;;;;;4920177;28;20110;-85
2023/09/05 17:08:08;;;;;;;0.10;0.10;;;30.90;44.00;;;;;;4948789;28;20506;-89
2023/09/05 17:10:35;;;;;;;0.00;0.00;;;30.90;44.20;;;;;;4938875;28;20039;-87
2023/09/05 17:13:01;;;;;;;0.10;0.10;;;30.90;44.00;;;;;;4938242;28;20031;-87
2023/09/05 17:15:27;;;;;;;0.17;0.10;;;30.80;44.30;;;;;;4949052;28;20560;-84
2023/09/05 17:17:53;;;;;;;0.10;0.10;;;30.80;44.20;;;;;;4936250;28;20023;-91
2023/09/05 17:20:20;;;;;;;0.00;0.00;;;30.80;45.00;;;;;;4955158;28;20038;-86
2023/09/05 17:22:46;;;;;;;0.10;0.10;;;30.70;45.40;;;;;;4955801;28;20035;-86
2023/09/05 17:25:15;;;;;;;0.10;0.10;;;30.60;45.20;;;;;;4952482;28;21629;-85
2023/09/05 17:27:41;;;;;;;0.20;0.10;;;30.60;46.40;;;;;;4936042;28;20070;-82